sensor_id;sensor_type;location;lat;lon;timestamp;P1;durP1;ratioP1;P2;durP2;ratioP2
63320;SDS011;49449;48.800;9.534;2023-02-28T00:01:13;2.80;;;2.60;;
63320;SDS011;49449;48.800;9.534;2023-02-28T00:03:42;4.05;;;3.15;;
63320;SDS011;49449;48.800;9.534;2023-02-28T00:06:09;3.60;;;2.90;;
63320;SDS011;49449;48.800;9.534;2023-02-28T00:08:38;4.93;;;2.97;;
63320;SDS011;49449;48.800;9.534;2023-02-28T00:11:08;3.78;;;2.92;;
63320;SDS011;49449;48.800;9.534;2023-02-28T00:13:38;3.33;;;2.78;;
63320;SDS011;49449;48.800;9.534;2023-02-28T00:16:08;4.20;;;3.47;;
63320;SDS011;49449;48.800;9.534;2023-02-28T00:18:37;3.42;;;2.78;;
63320;SDS011;49449;48.800;9.534;2023-02-28T00:21:05;4.63;;;2.50;;
63320;SDS011;49449;48.800;9.534;2023-02-28T00:23:34;3.85;;;2.50;;
63320;SDS011;49449;48.800;9.534;2023-02-28T00:26:02;3.20;;;2.65;;
63320;SDS011;49449;48.800;9.534;2023-02-28T00:28:32;3.17;;;2.63;;
63320;SDS011;49449;48.800;9.534;2023-02-28T00:31:02;2.97;;;2.45;;
63320;SDS011;49449;48.800;9.534;2023-02-28T00:33:30;4.15;;;3.00;;
63320;SDS011;49449;48.800;9.534;2023-02-28T00:36:02;3.80;;;2.63;;
63320;SDS011;49449;48.800;9.534;2023-02-28T00:38:31;4.18;;;3.30;;
63320;SDS011;49449;48.800;9.534;2023-02-28T00:40:59;4.05;;;3.05;;
63320;SDS011;49449;48.800;9.534;2023-02-28T00:43:33;3.58;;;2.63;;
63320;SDS011;49449;48.800;9.534;2023-02-28T00:46:01;4.22;;;2.85;;
63320;SDS011;49449;48.800;9.534;2023-02-28T00:48:29;4.38;;;3.55;;
63320;SDS011;49449;48.800;9.534;2023-02-28T00:50:58;4.72;;;3.05;;
63320;SDS011;49449;48.800;9.534;2023-02-28T00:53:26;3.58;;;2.90;;
63320;SDS011;49449;48.800;9.534;2023-02-28T00:55:54;3.22;;;2.70;;
63320;SDS011;49449;48.800;9.534;2023-02-28T00:58:22;4.07;;;3.35;;
63320;SDS011;49449;48.800;9.534;2023-02-28T01:00:51;4.35;;;3.17;;
63320;SDS011;49449;48.800;9.534;2023-02-28T01:03:20;3.63;;;2.90;;
63320;SDS011;49449;48.800;9.534;2023-02-28T01:05:48;3.92;;;2.80;;
63320;SDS011;49449;48.800;9.534;2023-02-28T01:08:16;3.53;;;3.05;;
63320;SDS011;49449;48.800;9.534;2023-02-28T01:10:44;5.07;;;3.15;;
63320;SDS011;49449;48.800;9.534;2023-02-28T01:13:12;3.30;;;3.00;;
63320;SDS011;49449;48.800;9.534;2023-02-28T01:15:41;3.20;;;2.85;;
63320;SDS011;49449;48.800;9.534;2023-02-28T01:18:14;3.55;;;2.75;;
63320;SDS011;49449;48.800;9.534;2023-02-28T01:20:42;3.20;;;2.90;;
63320;SDS011;49449;48.800;9.534;2023-02-28T01:23:10;4.50;;;3.13;;
63320;SDS011;49449;48.800;9.534;2023-02-28T01:25:38;4.25;;;3.50;;
63320;SDS011;49449;48.800;9.534;2023-02-28T01:28:06;3.65;;;3.13;;
63320;SDS011;49449;48.800;9.534;2023-02-28T01:30:34;3.55;;;3.05;;
63320;SDS011;49449;48.800;9.534;2023-02-28T01:33:02;4.72;;;3.20;;
63320;SDS011;49449;48.800;9.534;2023-02-28T01:35:33;3.15;;;2.85;;
63320;SDS011;49449;48.800;9.534;2023-02-28T01:38:01;4.03;;;3.15;;
63320;SDS011;49449;48.800;9.534;2023-02-28T01:40:45;3.55;;;3.25;;
63320;SDS011;49449;48.800;9.534;2023-02-28T01:43:16;3.35;;;3.00;;
63320;SDS011;49449;48.800;9.534;2023-02-28T01:45:48;3.30;;;2.97;;
63320;SDS011;49449;48.800;9.534;2023-02-28T01:48:16;3.65;;;3.00;;
63320;SDS011;49449;48.800;9.534;2023-02-28T01:50:47;4.55;;;3.63;;
63320;SDS011;49449;48.800;9.534;2023-02-28T01:53:16;4.80;;;3.47;;
63320;SDS011;49449;48.800;9.534;2023-02-28T01:55:48;4.45;;;4.07;;
63320;SDS011;49449;48.800;9.534;2023-02-28T01:58:20;5.30;;;3.28;;
63320;SDS011;49449;48.800;9.534;2023-02-28T02:00:48;4.30;;;3.70;;
63320;SDS011;49449;48.800;9.534;2023-02-28T02:03:17;3.97;;;3.28;;
63320;SDS011;49449;48.800;9.534;2023-02-28T02:05:48;3.20;;;2.90;;
63320;SDS011;49449;48.800;9.534;2023-02-28T02:08:17;5.30;;;3.58;;
63320;SDS011;49449;48.800;9.534;2023-02-28T02:10:49;4.85;;;3.67;;
63320;SDS011;49449;48.800;9.534;2023-02-28T02:15:56;3.60;;;3.08;;
63320;SDS011;49449;48.800;9.534;2023-02-28T02:18:33;4.10;;;3.47;;
63320;SDS011;49449;48.800;9.534;2023-02-28T02:21:13;4.40;;;3.35;;
63320;SDS011;49449;48.800;9.534;2023-02-28T02:23:56;5.40;;;3.67;;
63320;SDS011;49449;48.800;9.534;2023-02-28T02:32:32;4.15;;;3.60;;
63320;SDS011;49449;48.800;9.534;2023-02-28T02:35:13;4.15;;;3.67;;
63320;SDS011;49449;48.800;9.534;2023-02-28T02:37:47;4.32;;;3.65;;
63320;SDS011;49449;48.800;9.534;2023-02-28T02:40:19;4.88;;;3.58;;
63320;SDS011;49449;48.800;9.534;2023-02-28T02:42:51;3.50;;;3.08;;
63320;SDS011;49449;48.800;9.534;2023-02-28T02:45:24;5.97;;;3.67;;
63320;SDS011;49449;48.800;9.534;2023-02-28T02:47:56;4.07;;;3.42;;
63320;SDS011;49449;48.800;9.534;2023-02-28T02:50:29;4.30;;;3.20;;
63320;SDS011;49449;48.800;9.534;2023-02-28T02:53:01;4.75;;;3.42;;
63320;SDS011;49449;48.800;9.534;2023-02-28T02:55:30;4.70;;;3.30;;
63320;SDS011;49449;48.800;9.534;2023-02-28T02:58:01;4.93;;;3.65;;
63320;SDS011;49449;48.800;9.534;2023-02-28T03:00:33;3.95;;;3.25;;
63320;SDS011;49449;48.800;9.534;2023-02-28T03:03:04;5.80;;;3.72;;
63320;SDS011;49449;48.800;9.534;2023-02-28T03:05:39;4.00;;;3.47;;
63320;SDS011;49449;48.800;9.534;2023-02-28T03:08:11;4.20;;;3.38;;
63320;SDS011;49449;48.800;9.534;2023-02-28T03:10:40;4.10;;;3.47;;
63320;SDS011;49449;48.800;9.534;2023-02-28T03:13:14;4.10;;;3.70;;
63320;SDS011;49449;48.800;9.534;2023-02-28T03:16:05;3.97;;;3.42;;
63320;SDS011;49449;48.800;9.534;2023-02-28T03:18:52;5.03;;;3.80;;
63320;SDS011;49449;48.800;9.534;2023-02-28T03:21:29;4.75;;;3.67;;
63320;SDS011;49449;48.800;9.534;2023-02-28T03:24:05;4.95;;;3.85;;
63320;SDS011;49449;48.800;9.534;2023-02-28T03:26:38;3.97;;;3.58;;
63320;SDS011;49449;48.800;9.534;2023-02-28T03:29:11;5.32;;;3.80;;
63320;SDS011;49449;48.800;9.534;2023-02-28T03:31:44;4.70;;;3.33;;
63320;SDS011;49449;48.800;9.534;2023-02-28T03:34:19;4.40;;;3.92;;
63320;SDS011;49449;48.800;9.534;2023-02-28T03:36:55;4.47;;;3.90;;
63320;SDS011;49449;48.800;9.534;2023-02-28T03:39:28;4.32;;;3.92;;
63320;SDS011;49449;48.800;9.534;2023-02-28T03:42:04;4.75;;;3.78;;
63320;SDS011;49449;48.800;9.534;2023-02-28T03:44:38;4.35;;;3.83;;
63320;SDS011;49449;48.800;9.534;2023-02-28T03:47:10;3.58;;;3.28;;
63320;SDS011;49449;48.800;9.534;2023-02-28T03:49:42;4.82;;;3.75;;
63320;SDS011;49449;48.800;9.534;2023-02-28T03:52:17;4.22;;;3.83;;
63320;SDS011;49449;48.800;9.534;2023-02-28T03:54:50;5.72;;;4.70;;
63320;SDS011;49449;48.800;9.534;2023-02-28T03:57:22;5.45;;;4.95;;
63320;SDS011;49449;48.800;9.534;2023-02-28T03:59:59;4.57;;;4.05;;
63320;SDS011;49449;48.800;9.534;2023-02-28T04:02:34;5.53;;;3.72;;
63320;SDS011;49449;48.800;9.534;2023-02-28T04:05:02;4.82;;;4.30;;
63320;SDS011;49449;48.800;9.534;2023-02-28T04:07:31;5.20;;;4.22;;
63320;SDS011;49449;48.800;9.534;2023-02-28T04:09:59;6.25;;;4.32;;
63320;SDS011;49449;48.800;9.534;2023-02-28T04:12:27;4.93;;;3.97;;
63320;SDS011;49449;48.800;9.534;2023-02-28T04:14:54;6.78;;;4.78;;
63320;SDS011;49449;48.800;9.534;2023-02-28T04:17:22;5.90;;;4.07;;
63320;SDS011;49449;48.800;9.534;2023-02-28T04:19:50;4.75;;;4.22;;
63320;SDS011;49449;48.800;9.534;2023-02-28T04:22:17;6.15;;;3.95;;
63320;SDS011;49449;48.800;9.534;2023-02-28T04:24:47;4.63;;;4.22;;
63320;SDS011;49449;48.800;9.534;2023-02-28T04:27:15;5.20;;;3.70;;
63320;SDS011;49449;48.800;9.534;2023-02-28T04:29:42;5.65;;;4.03;;
63320;SDS011;49449;48.800;9.534;2023-02-28T04:32:11;6.00;;;4.40;;
63320;SDS011;49449;48.800;9.534;2023-02-28T04:34:39;5.15;;;4.38;;
63320;SDS011;49449;48.800;9.534;2023-02-28T04:37:07;4.90;;;3.80;;
63320;SDS011;49449;48.800;9.534;2023-02-28T04:39:39;4.22;;;3.83;;
63320;SDS011;49449;48.800;9.534;2023-02-28T04:42:08;6.30;;;4.55;;
63320;SDS011;49449;48.800;9.534;2023-02-28T04:44:37;5.05;;;4.07;;
63320;SDS011;49449;48.800;9.534;2023-02-28T04:47:05;4.57;;;4.15;;
63320;SDS011;49449;48.800;9.534;2023-02-28T04:49:32;4.70;;;3.80;;
63320;SDS011;49449;48.800;9.534;2023-02-28T04:52:00;5.07;;;4.47;;
63320;SDS011;49449;48.800;9.534;2023-02-28T04:54:28;5.53;;;4.90;;
63320;SDS011;49449;48.800;9.534;2023-02-28T04:56:56;6.50;;;4.68;;
63320;SDS011;49449;48.800;9.534;2023-02-28T04:59:25;6.90;;;4.93;;
63320;SDS011;49449;48.800;9.534;2023-02-28T05:01:53;6.20;;;4.88;;
63320;SDS011;49449;48.800;9.534;2023-02-28T05:04:20;4.75;;;4.25;;
63320;SDS011;49449;48.800;9.534;2023-02-28T05:06:48;6.07;;;5.10;;
63320;SDS011;49449;48.800;9.534;2023-02-28T05:09:16;6.93;;;4.97;;
63320;SDS011;49449;48.800;9.534;2023-02-28T05:11:44;6.53;;;4.95;;
63320;SDS011;49449;48.800;9.534;2023-02-28T05:14:12;5.90;;;4.75;;
63320;SDS011;49449;48.800;9.534;2023-02-28T05:16:42;7.65;;;5.60;;
63320;SDS011;49449;48.800;9.534;2023-02-28T05:19:10;6.10;;;4.55;;
63320;SDS011;49449;48.800;9.534;2023-02-28T05:21:39;6.10;;;5.50;;
63320;SDS011;49449;48.800;9.534;2023-02-28T05:24:09;6.07;;;5.18;;
63320;SDS011;49449;48.800;9.534;2023-02-28T05:26:39;7.15;;;5.38;;
63320;SDS011;49449;48.800;9.534;2023-02-28T05:29:08;6.35;;;5.75;;
63320;SDS011;49449;48.800;9.534;2023-02-28T05:31:37;6.57;;;5.65;;
63320;SDS011;49449;48.800;9.534;2023-02-28T05:34:06;6.47;;;5.15;;
63320;SDS011;49449;48.800;9.534;2023-02-28T05:36:37;6.03;;;5.18;;
63320;SDS011;49449;48.800;9.534;2023-02-28T05:39:05;8.40;;;5.78;;
63320;SDS011;49449;48.800;9.534;2023-02-28T05:41:33;7.93;;;5.55;;
63320;SDS011;49449;48.800;9.534;2023-02-28T05:44:01;7.70;;;5.28;;
63320;SDS011;49449;48.800;9.534;2023-02-28T05:46:29;6.57;;;5.43;;
63320;SDS011;49449;48.800;9.534;2023-02-28T05:48:56;7.50;;;5.05;;
63320;SDS011;49449;48.800;9.534;2023-02-28T05:51:27;7.70;;;5.75;;
63320;SDS011;49449;48.800;9.534;2023-02-28T05:53:58;7.43;;;6.13;;
63320;SDS011;49449;48.800;9.534;2023-02-28T05:56:27;8.52;;;6.13;;
63320;SDS011;49449;48.800;9.534;2023-02-28T05:58:56;7.78;;;5.57;;
63320;SDS011;49449;48.800;9.534;2023-02-28T06:01:24;8.65;;;5.80;;
63320;SDS011;49449;48.800;9.534;2023-02-28T06:03:59;7.95;;;6.30;;
63320;SDS011;49449;48.800;9.534;2023-02-28T06:06:29;7.20;;;5.78;;
63320;SDS011;49449;48.800;9.534;2023-02-28T06:08:57;9.18;;;5.97;;
63320;SDS011;49449;48.800;9.534;2023-02-28T06:11:25;6.78;;;5.90;;
63320;SDS011;49449;48.800;9.534;2023-02-28T06:13:54;7.75;;;5.90;;
63320;SDS011;49449;48.800;9.534;2023-02-28T06:16:22;9.10;;;5.97;;
63320;SDS011;49449;48.800;9.534;2023-02-28T06:18:51;7.63;;;6.05;;
63320;SDS011;49449;48.800;9.534;2023-02-28T06:21:21;9.35;;;6.65;;
63320;SDS011;49449;48.800;9.534;2023-02-28T06:23:51;7.40;;;6.00;;
63320;SDS011;49449;48.800;9.534;2023-02-28T06:26:19;6.50;;;5.55;;
63320;SDS011;49449;48.800;9.534;2023-02-28T06:28:47;7.75;;;5.57;;
63320;SDS011;49449;48.800;9.534;2023-02-28T06:31:16;7.45;;;6.03;;
63320;SDS011;49449;48.800;9.534;2023-02-28T06:33:45;7.95;;;6.65;;
63320;SDS011;49449;48.800;9.534;2023-02-28T06:36:13;8.77;;;6.32;;
63320;SDS011;49449;48.800;9.534;2023-02-28T06:38:42;8.35;;;6.85;;
63320;SDS011;49449;48.800;9.534;2023-02-28T06:41:12;7.95;;;6.15;;
63320;SDS011;49449;48.800;9.534;2023-02-28T06:43:40;8.65;;;6.47;;
63320;SDS011;49449;48.800;9.534;2023-02-28T06:46:11;8.65;;;6.97;;
63320;SDS011;49449;48.800;9.534;2023-02-28T06:48:40;8.20;;;7.30;;
63320;SDS011;49449;48.800;9.534;2023-02-28T06:51:11;8.63;;;6.35;;
63320;SDS011;49449;48.800;9.534;2023-02-28T06:53:40;8.13;;;6.38;;
63320;SDS011;49449;48.800;9.534;2023-02-28T06:56:09;7.18;;;5.70;;
63320;SDS011;49449;48.800;9.534;2023-02-28T06:58:40;8.82;;;6.53;;
63320;SDS011;49449;48.800;9.534;2023-02-28T07:01:08;8.30;;;7.10;;
63320;SDS011;49449;48.800;9.534;2023-02-28T07:03:36;10.48;;;7.18;;
63320;SDS011;49449;48.800;9.534;2023-02-28T07:06:04;8.18;;;6.70;;
63320;SDS011;49449;48.800;9.534;2023-02-28T07:08:32;8.65;;;6.82;;
63320;SDS011;49449;48.800;9.534;2023-02-28T07:11:00;8.80;;;6.25;;
63320;SDS011;49449;48.800;9.534;2023-02-28T07:13:30;8.38;;;7.15;;
63320;SDS011;49449;48.800;9.534;2023-02-28T07:15:59;9.73;;;6.22;;
63320;SDS011;49449;48.800;9.534;2023-02-28T07:18:28;7.57;;;6.03;;
63320;SDS011;49449;48.800;9.534;2023-02-28T07:20:56;8.43;;;6.57;;
63320;SDS011;49449;48.800;9.534;2023-02-28T07:23:23;8.43;;;6.63;;
63320;SDS011;49449;48.800;9.534;2023-02-28T07:25:51;9.98;;;7.13;;
63320;SDS011;49449;48.800;9.534;2023-02-28T07:28:19;9.07;;;6.93;;
63320;SDS011;49449;48.800;9.534;2023-02-28T07:30:48;8.77;;;6.68;;
63320;SDS011;49449;48.800;9.534;2023-02-28T07:33:16;7.70;;;6.75;;
63320;SDS011;49449;48.800;9.534;2023-02-28T07:35:44;9.10;;;6.85;;
63320;SDS011;49449;48.800;9.534;2023-02-28T07:38:12;8.52;;;7.03;;
63320;SDS011;49449;48.800;9.534;2023-02-28T07:40:40;9.43;;;6.90;;
63320;SDS011;49449;48.800;9.534;2023-02-28T07:43:08;8.80;;;6.95;;
63320;SDS011;49449;48.800;9.534;2023-02-28T07:45:36;8.52;;;6.88;;
63320;SDS011;49449;48.800;9.534;2023-02-28T07:48:05;9.52;;;7.88;;
63320;SDS011;49449;48.800;9.534;2023-02-28T07:53:03;8.18;;;6.93;;
63320;SDS011;49449;48.800;9.534;2023-02-28T07:55:31;8.15;;;7.13;;
63320;SDS011;49449;48.800;9.534;2023-02-28T07:57:59;10.30;;;8.20;;
63320;SDS011;49449;48.800;9.534;2023-02-28T08:00:27;11.43;;;7.78;;
63320;SDS011;49449;48.800;9.534;2023-02-28T08:02:55;10.30;;;7.05;;
63320;SDS011;49449;48.800;9.534;2023-02-28T08:05:24;8.45;;;6.32;;
63320;SDS011;49449;48.800;9.534;2023-02-28T08:07:52;9.27;;;7.32;;
63320;SDS011;49449;48.800;9.534;2023-02-28T08:10:20;14.63;;;10.70;;
63320;SDS011;49449;48.800;9.534;2023-02-28T08:12:48;11.15;;;7.68;;
63320;SDS011;49449;48.800;9.534;2023-02-28T08:15:16;10.68;;;8.40;;
63320;SDS011;49449;48.800;9.534;2023-02-28T08:17:44;10.10;;;7.40;;
63320;SDS011;49449;48.800;9.534;2023-02-28T08:20:12;8.95;;;7.80;;
63320;SDS011;49449;48.800;9.534;2023-02-28T08:22:41;8.93;;;7.28;;
63320;SDS011;49449;48.800;9.534;2023-02-28T08:25:11;9.30;;;7.05;;
63320;SDS011;49449;48.800;9.534;2023-02-28T08:27:38;9.52;;;7.22;;
63320;SDS011;49449;48.800;9.534;2023-02-28T08:30:07;8.98;;;7.20;;
63320;SDS011;49449;48.800;9.534;2023-02-28T08:32:37;8.07;;;7.00;;
63320;SDS011;49449;48.800;9.534;2023-02-28T08:35:05;9.70;;;7.78;;
63320;SDS011;49449;48.800;9.534;2023-02-28T08:37:35;9.07;;;6.93;;
63320;SDS011;49449;48.800;9.534;2023-02-28T08:40:05;8.95;;;7.22;;
63320;SDS011;49449;48.800;9.534;2023-02-28T08:42:34;10.38;;;7.88;;
63320;SDS011;49449;48.800;9.534;2023-02-28T08:45:01;8.32;;;7.45;;
63320;SDS011;49449;48.800;9.534;2023-02-28T08:47:30;10.20;;;7.30;;
63320;SDS011;49449;48.800;9.534;2023-02-28T08:49:57;9.50;;;7.30;;
63320;SDS011;49449;48.800;9.534;2023-02-28T08:52:25;11.55;;;7.85;;
63320;SDS011;49449;48.800;9.534;2023-02-28T08:54:53;10.30;;;7.43;;
63320;SDS011;49449;48.800;9.534;2023-02-28T08:57:22;8.95;;;8.05;;
63320;SDS011;49449;48.800;9.534;2023-02-28T08:59:52;10.63;;;7.97;;
63320;SDS011;49449;48.800;9.534;2023-02-28T09:02:20;8.85;;;7.38;;
63320;SDS011;49449;48.800;9.534;2023-02-28T09:04:47;8.93;;;7.28;;
63320;SDS011;49449;48.800;9.534;2023-02-28T09:07:15;11.02;;;7.68;;
63320;SDS011;49449;48.800;9.534;2023-02-28T09:09:43;9.75;;;8.00;;
63320;SDS011;49449;48.800;9.534;2023-02-28T09:12:22;10.30;;;7.65;;
63320;SDS011;49449;48.800;9.534;2023-02-28T09:14:51;11.77;;;8.25;;
63320;SDS011;49449;48.800;9.534;2023-02-28T09:17:19;10.32;;;8.07;;
63320;SDS011;49449;48.800;9.534;2023-02-28T09:19:47;26.95;;;15.70;;
63320;SDS011;49449;48.800;9.534;2023-02-28T09:22:16;15.23;;;11.68;;
63320;SDS011;49449;48.800;9.534;2023-02-28T09:24:43;12.05;;;8.98;;
63320;SDS011;49449;48.800;9.534;2023-02-28T09:27:11;10.52;;;8.77;;
63320;SDS011;49449;48.800;9.534;2023-02-28T09:29:40;11.57;;;8.38;;
63320;SDS011;49449;48.800;9.534;2023-02-28T09:32:08;10.50;;;8.07;;
63320;SDS011;49449;48.800;9.534;2023-02-28T09:34:36;9.43;;;8.05;;
63320;SDS011;49449;48.800;9.534;2023-02-28T09:37:04;10.60;;;7.05;;
63320;SDS011;49449;48.800;9.534;2023-02-28T09:39:32;11.38;;;7.82;;
63320;SDS011;49449;48.800;9.534;2023-02-28T09:42:00;10.35;;;8.35;;
63320;SDS011;49449;48.800;9.534;2023-02-28T09:44:31;12.93;;;8.70;;
63320;SDS011;49449;48.800;9.534;2023-02-28T09:47:07;10.65;;;8.30;;
63320;SDS011;49449;48.800;9.534;2023-02-28T09:49:40;9.63;;;8.30;;
63320;SDS011;49449;48.800;9.534;2023-02-28T09:52:13;13.93;;;8.85;;
63320;SDS011;49449;48.800;9.534;2023-02-28T09:54:45;9.75;;;7.78;;
63320;SDS011;49449;48.800;9.534;2023-02-28T09:57:14;9.70;;;7.65;;
63320;SDS011;49449;48.800;9.534;2023-02-28T09:59:51;10.60;;;8.23;;
63320;SDS011;49449;48.800;9.534;2023-02-28T10:02:41;9.15;;;7.80;;
63320;SDS011;49449;48.800;9.534;2023-02-28T10:05:19;10.15;;;7.82;;
63320;SDS011;49449;48.800;9.534;2023-02-28T10:07:55;16.05;;;8.82;;
63320;SDS011;49449;48.800;9.534;2023-02-28T10:10:35;10.05;;;8.65;;
63320;SDS011;49449;48.800;9.534;2023-02-28T10:13:07;12.15;;;8.55;;
63320;SDS011;49449;48.800;9.534;2023-02-28T10:15:42;10.50;;;8.05;;
63320;SDS011;49449;48.800;9.534;2023-02-28T10:18:16;11.68;;;7.75;;
63320;SDS011;49449;48.800;9.534;2023-02-28T10:20:50;11.07;;;8.10;;
63320;SDS011;49449;48.800;9.534;2023-02-28T10:23:20;10.88;;;8.15;;
63320;SDS011;49449;48.800;9.534;2023-02-28T10:25:53;11.00;;;7.85;;
63320;SDS011;49449;48.800;9.534;2023-02-28T10:28:24;11.70;;;8.27;;
63320;SDS011;49449;48.800;9.534;2023-02-28T10:30:54;10.75;;;8.38;;
63320;SDS011;49449;48.800;9.534;2023-02-28T10:33:24;10.38;;;8.10;;
63320;SDS011;49449;48.800;9.534;2023-02-28T10:35:55;9.85;;;7.07;;
63320;SDS011;49449;48.800;9.534;2023-02-28T10:38:24;9.88;;;8.05;;
63320;SDS011;49449;48.800;9.534;2023-02-28T10:41:02;11.02;;;8.70;;
63320;SDS011;49449;48.800;9.534;2023-02-28T10:43:32;9.38;;;7.93;;
63320;SDS011;49449;48.800;9.534;2023-02-28T10:46:02;9.93;;;7.47;;
63320;SDS011;49449;48.800;9.534;2023-02-28T10:48:38;10.60;;;7.90;;
63320;SDS011;49449;48.800;9.534;2023-02-28T10:51:09;11.32;;;7.88;;
63320;SDS011;49449;48.800;9.534;2023-02-28T10:53:39;9.63;;;8.05;;
63320;SDS011;49449;48.800;9.534;2023-02-28T10:56:26;10.30;;;7.80;;
63320;SDS011;49449;48.800;9.534;2023-02-28T10:58:54;11.90;;;7.57;;
63320;SDS011;49449;48.800;9.534;2023-02-28T11:01:24;11.05;;;8.20;;
63320;SDS011;49449;48.800;9.534;2023-02-28T11:04:02;10.70;;;8.00;;
63320;SDS011;49449;48.800;9.534;2023-02-28T11:06:31;11.02;;;7.63;;
63320;SDS011;49449;48.800;9.534;2023-02-28T11:09:01;11.15;;;6.88;;
63320;SDS011;49449;48.800;9.534;2023-02-28T11:11:31;9.23;;;7.93;;
63320;SDS011;49449;48.800;9.534;2023-02-28T11:14:16;9.05;;;7.65;;
63320;SDS011;49449;48.800;9.534;2023-02-28T11:16:47;9.38;;;7.57;;
63320;SDS011;49449;48.800;9.534;2023-02-28T11:19:19;8.57;;;7.43;;
63320;SDS011;49449;48.800;9.534;2023-02-28T11:21:52;8.75;;;7.35;;
63320;SDS011;49449;48.800;9.534;2023-02-28T11:24:24;13.27;;;8.13;;
63320;SDS011;49449;48.800;9.534;2023-02-28T11:26:57;9.75;;;7.57;;
63320;SDS011;49449;48.800;9.534;2023-02-28T11:29:26;9.38;;;8.18;;
63320;SDS011;49449;48.800;9.534;2023-02-28T11:32:03;11.60;;;9.18;;
63320;SDS011;49449;48.800;9.534;2023-02-28T11:34:42;10.32;;;8.48;;
63320;SDS011;49449;48.800;9.534;2023-02-28T11:37:11;10.15;;;7.32;;
63320;SDS011;49449;48.800;9.534;2023-02-28T11:39:42;9.25;;;7.85;;
63320;SDS011;49449;48.800;9.534;2023-02-28T11:42:23;9.98;;;7.68;;
63320;SDS011;49449;48.800;9.534;2023-02-28T11:45:12;8.93;;;7.90;;
63320;SDS011;49449;48.800;9.534;2023-02-28T11:47:52;9.90;;;7.60;;
63320;SDS011;49449;48.800;9.534;2023-02-28T11:53:24;9.68;;;8.35;;
63320;SDS011;49449;48.800;9.534;2023-02-28T11:56:16;8.85;;;7.70;;
63320;SDS011;49449;48.800;9.534;2023-02-28T11:58:52;10.10;;;7.78;;
63320;SDS011;49449;48.800;9.534;2023-02-28T12:01:32;9.70;;;8.10;;
63320;SDS011;49449;48.800;9.534;2023-02-28T12:04:22;10.32;;;7.35;;
63320;SDS011;49449;48.800;9.534;2023-02-28T12:07:00;10.15;;;8.13;;
63320;SDS011;49449;48.800;9.534;2023-02-28T12:09:39;11.52;;;8.13;;
63320;SDS011;49449;48.800;9.534;2023-02-28T12:12:18;9.77;;;7.78;;
63320;SDS011;49449;48.800;9.534;2023-02-28T12:20:52;10.52;;;8.00;;
63320;SDS011;49449;48.800;9.534;2023-02-28T12:23:31;10.20;;;7.88;;
63320;SDS011;49449;48.800;9.534;2023-02-28T12:26:18;8.70;;;7.20;;
63320;SDS011;49449;48.800;9.534;2023-02-28T12:28:57;9.65;;;7.55;;
63320;SDS011;49449;48.800;9.534;2023-02-28T12:31:30;8.63;;;7.13;;
63320;SDS011;49449;48.800;9.534;2023-02-28T12:34:04;10.60;;;7.95;;
63320;SDS011;49449;48.800;9.534;2023-02-28T12:36:35;9.52;;;7.85;;
63320;SDS011;49449;48.800;9.534;2023-02-28T12:39:08;8.82;;;7.10;;
63320;SDS011;49449;48.800;9.534;2023-02-28T12:41:41;10.57;;;7.65;;
63320;SDS011;49449;48.800;9.534;2023-02-28T12:44:13;9.95;;;8.48;;
63320;SDS011;49449;48.800;9.534;2023-02-28T12:46:46;9.18;;;7.35;;
63320;SDS011;49449;48.800;9.534;2023-02-28T12:49:16;9.82;;;7.40;;
63320;SDS011;49449;48.800;9.534;2023-02-28T12:51:49;10.02;;;7.88;;
63320;SDS011;49449;48.800;9.534;2023-02-28T12:54:21;9.98;;;7.57;;
63320;SDS011;49449;48.800;9.534;2023-02-28T12:56:54;11.40;;;8.10;;
63320;SDS011;49449;48.800;9.534;2023-02-28T12:59:32;11.32;;;7.95;;
63320;SDS011;49449;48.800;9.534;2023-02-28T13:05:16;9.63;;;8.60;;
63320;SDS011;49449;48.800;9.534;2023-02-28T13:08:16;10.27;;;8.07;;
63320;SDS011;49449;48.800;9.534;2023-02-28T13:11:02;9.57;;;7.90;;
63320;SDS011;49449;48.800;9.534;2023-02-28T13:13:35;9.77;;;7.65;;
63320;SDS011;49449;48.800;9.534;2023-02-28T13:16:04;9.57;;;7.40;;
63320;SDS011;49449;48.800;9.534;2023-02-28T13:18:35;10.57;;;8.02;;
63320;SDS011;49449;48.800;9.534;2023-02-28T13:21:06;10.45;;;7.32;;
63320;SDS011;49449;48.800;9.534;2023-02-28T13:23:36;11.10;;;7.68;;
63320;SDS011;49449;48.800;9.534;2023-02-28T13:26:09;8.35;;;7.10;;
63320;SDS011;49449;48.800;9.534;2023-02-28T13:35:12;9.20;;;7.68;;
63320;SDS011;49449;48.800;9.534;2023-02-28T13:37:42;8.48;;;7.00;;
63320;SDS011;49449;48.800;9.534;2023-02-28T13:40:27;9.13;;;7.55;;
63320;SDS011;49449;48.800;9.534;2023-02-28T13:43:05;8.80;;;7.50;;
63320;SDS011;49449;48.800;9.534;2023-02-28T13:45:35;10.65;;;8.25;;
63320;SDS011;49449;48.800;9.534;2023-02-28T13:48:05;9.00;;;7.75;;
63320;SDS011;49449;48.800;9.534;2023-02-28T13:50:45;9.18;;;7.22;;
63320;SDS011;49449;48.800;9.534;2023-02-28T13:53:25;9.93;;;8.07;;
63320;SDS011;49449;48.800;9.534;2023-02-28T13:56:20;9.20;;;7.38;;
63320;SDS011;49449;48.800;9.534;2023-02-28T13:58:55;8.90;;;7.55;;
63320;SDS011;49449;48.800;9.534;2023-02-28T14:01:37;8.90;;;7.70;;
63320;SDS011;49449;48.800;9.534;2023-02-28T14:07:19;9.90;;;7.72;;
63320;SDS011;49449;48.800;9.534;2023-02-28T14:09:51;9.95;;;7.97;;
63320;SDS011;49449;48.800;9.534;2023-02-28T14:18:26;9.40;;;8.13;;
63320;SDS011;49449;48.800;9.534;2023-02-28T14:21:08;10.57;;;7.53;;
63320;SDS011;49449;48.800;9.534;2023-02-28T14:30:03;10.23;;;7.43;;
63320;SDS011;49449;48.800;9.534;2023-02-28T14:33:00;9.48;;;7.60;;
63320;SDS011;49449;48.800;9.534;2023-02-28T14:35:51;9.30;;;7.25;;
63320;SDS011;49449;48.800;9.534;2023-02-28T14:38:28;9.23;;;7.55;;
63320;SDS011;49449;48.800;9.534;2023-02-28T14:41:00;9.55;;;8.02;;
63320;SDS011;49449;48.800;9.534;2023-02-28T14:43:32;8.30;;;7.38;;
63320;SDS011;49449;48.800;9.534;2023-02-28T14:46:00;9.18;;;6.82;;
63320;SDS011;49449;48.800;9.534;2023-02-28T14:48:31;10.48;;;8.15;;
63320;SDS011;49449;48.800;9.534;2023-02-28T14:51:01;11.10;;;8.27;;
63320;SDS011;49449;48.800;9.534;2023-02-28T14:53:29;10.23;;;7.78;;
63320;SDS011;49449;48.800;9.534;2023-02-28T14:56:02;9.63;;;8.00;;
63320;SDS011;49449;48.800;9.534;2023-02-28T14:58:31;11.23;;;8.50;;
63320;SDS011;49449;48.800;9.534;2023-02-28T15:01:00;9.15;;;7.57;;
63320;SDS011;49449;48.800;9.534;2023-02-28T15:03:32;10.32;;;8.10;;
63320;SDS011;49449;48.800;9.534;2023-02-28T15:06:02;10.95;;;7.85;;
63320;SDS011;49449;48.800;9.534;2023-02-28T15:08:32;9.57;;;8.07;;
63320;SDS011;49449;48.800;9.534;2023-02-28T15:11:02;10.30;;;7.82;;
63320;SDS011;49449;48.800;9.534;2023-02-28T15:13:34;9.50;;;7.93;;
63320;SDS011;49449;48.800;9.534;2023-02-28T15:16:06;10.45;;;7.90;;
63320;SDS011;49449;48.800;9.534;2023-02-28T15:18:41;8.60;;;7.13;;
63320;SDS011;49449;48.800;9.534;2023-02-28T15:21:14;9.55;;;7.50;;
63320;SDS011;49449;48.800;9.534;2023-02-28T15:23:45;10.40;;;8.20;;
63320;SDS011;49449;48.800;9.534;2023-02-28T15:26:16;9.27;;;7.90;;
63320;SDS011;49449;48.800;9.534;2023-02-28T15:28:48;10.50;;;8.13;;
63320;SDS011;49449;48.800;9.534;2023-02-28T15:31:20;9.30;;;7.82;;
63320;SDS011;49449;48.800;9.534;2023-02-28T15:33:55;11.05;;;8.32;;
63320;SDS011;49449;48.800;9.534;2023-02-28T15:36:24;9.02;;;7.68;;
63320;SDS011;49449;48.800;9.534;2023-02-28T15:38:54;23.77;;;14.50;;
63320;SDS011;49449;48.800;9.534;2023-02-28T15:41:28;12.40;;;9.65;;
63320;SDS011;49449;48.800;9.534;2023-02-28T15:44:16;11.05;;;8.90;;
63320;SDS011;49449;48.800;9.534;2023-02-28T15:46:54;11.65;;;8.90;;
63320;SDS011;49449;48.800;9.534;2023-02-28T15:49:27;11.70;;;9.10;;
63320;SDS011;49449;48.800;9.534;2023-02-28T15:51:58;11.32;;;8.35;;
63320;SDS011;49449;48.800;9.534;2023-02-28T15:54:28;10.70;;;8.10;;